sensor_id;sensor_type;location;lat;lon;timestamp;P1;durP1;ratioP1;P2;durP2;ratioP2
64653;SDS011;51065;48.884;12.598;2022-12-08T00:00:47;20.33;;;7.88;;
64653;SDS011;51065;48.884;12.598;2022-12-08T00:03:13;16.67;;;6.53;;
64653;SDS011;51065;48.884;12.598;2022-12-08T00:05:42;22.13;;;7.82;;
64653;SDS011;51065;48.884;12.598;2022-12-08T00:08:30;19.02;;;6.63;;
64653;SDS011;51065;48.884;12.598;2022-12-08T00:11:14;19.38;;;7.60;;
64653;SDS011;51065;48.884;12.598;2022-12-08T00:13:41;18.80;;;7.20;;
64653;SDS011;51065;48.884;12.598;2022-12-08T00:16:07;16.60;;;6.40;;
64653;SDS011;51065;48.884;12.598;2022-12-08T00:18:33;18.50;;;6.95;;
64653;SDS011;51065;48.884;12.598;2022-12-08T00:20:59;21.77;;;7.60;;
64653;SDS011;51065;48.884;12.598;2022-12-08T00:23:24;17.85;;;7.10;;
64653;SDS011;51065;48.884;12.598;2022-12-08T00:25:50;19.60;;;6.80;;
64653;SDS011;51065;48.884;12.598;2022-12-08T00:28:16;20.98;;;6.50;;
64653;SDS011;51065;48.884;12.598;2022-12-08T00:30:42;21.35;;;7.25;;
64653;SDS011;51065;48.884;12.598;2022-12-08T00:33:08;17.27;;;6.40;;
64653;SDS011;51065;48.884;12.598;2022-12-08T00:35:34;17.80;;;6.72;;
64653;SDS011;51065;48.884;12.598;2022-12-08T00:38:00;20.23;;;7.40;;
64653;SDS011;51065;48.884;12.598;2022-12-08T00:40:25;17.20;;;6.43;;
64653;SDS011;51065;48.884;12.598;2022-12-08T00:42:51;18.50;;;6.53;;
64653;SDS011;51065;48.884;12.598;2022-12-08T00:45:16;16.27;;;5.75;;
64653;SDS011;51065;48.884;12.598;2022-12-08T00:47:42;18.38;;;6.05;;
64653;SDS011;51065;48.884;12.598;2022-12-08T00:50:08;18.58;;;7.00;;
64653;SDS011;51065;48.884;12.598;2022-12-08T00:52:33;16.83;;;5.93;;
64653;SDS011;51065;48.884;12.598;2022-12-08T00:54:59;19.30;;;6.25;;
64653;SDS011;51065;48.884;12.598;2022-12-08T00:57:25;19.27;;;6.78;;
64653;SDS011;51065;48.884;12.598;2022-12-08T00:59:50;14.60;;;6.13;;
64653;SDS011;51065;48.884;12.598;2022-12-08T01:02:16;17.98;;;5.95;;
64653;SDS011;51065;48.884;12.598;2022-12-08T01:04:42;19.88;;;7.00;;
64653;SDS011;51065;48.884;12.598;2022-12-08T01:07:07;17.92;;;6.20;;
64653;SDS011;51065;48.884;12.598;2022-12-08T01:09:33;21.88;;;7.25;;
64653;SDS011;51065;48.884;12.598;2022-12-08T01:11:58;18.75;;;7.13;;
64653;SDS011;51065;48.884;12.598;2022-12-08T01:14:25;20.05;;;6.43;;
64653;SDS011;51065;48.884;12.598;2022-12-08T01:16:50;15.07;;;5.93;;
64653;SDS011;51065;48.884;12.598;2022-12-08T01:19:16;24.58;;;6.43;;
64653;SDS011;51065;48.884;12.598;2022-12-08T01:21:42;17.00;;;5.90;;
64653;SDS011;51065;48.884;12.598;2022-12-08T01:24:10;17.95;;;6.57;;
64653;SDS011;51065;48.884;12.598;2022-12-08T01:26:37;18.65;;;6.57;;
64653;SDS011;51065;48.884;12.598;2022-12-08T01:29:02;16.92;;;6.07;;
64653;SDS011;51065;48.884;12.598;2022-12-08T01:31:28;17.00;;;6.03;;
64653;SDS011;51065;48.884;12.598;2022-12-08T01:33:53;15.70;;;5.68;;
64653;SDS011;51065;48.884;12.598;2022-12-08T01:36:23;16.83;;;6.03;;
64653;SDS011;51065;48.884;12.598;2022-12-08T01:38:51;18.73;;;7.32;;
64653;SDS011;51065;48.884;12.598;2022-12-08T01:41:18;17.10;;;5.85;;
64653;SDS011;51065;48.884;12.598;2022-12-08T01:46:25;14.40;;;5.90;;
64653;SDS011;51065;48.884;12.598;2022-12-08T01:48:53;16.65;;;6.53;;
64653;SDS011;51065;48.884;12.598;2022-12-08T01:51:22;18.30;;;5.93;;
64653;SDS011;51065;48.884;12.598;2022-12-08T01:53:48;18.88;;;6.47;;
64653;SDS011;51065;48.884;12.598;2022-12-08T01:56:16;17.60;;;6.30;;
64653;SDS011;51065;48.884;12.598;2022-12-08T01:58:48;17.20;;;6.03;;
64653;SDS011;51065;48.884;12.598;2022-12-08T02:01:16;18.63;;;7.05;;
64653;SDS011;51065;48.884;12.598;2022-12-08T02:03:56;16.55;;;5.65;;
64653;SDS011;51065;48.884;12.598;2022-12-08T02:06:23;18.00;;;5.35;;
64653;SDS011;51065;48.884;12.598;2022-12-08T02:08:51;14.00;;;5.40;;
64653;SDS011;51065;48.884;12.598;2022-12-08T02:11:19;14.63;;;5.70;;
64653;SDS011;51065;48.884;12.598;2022-12-08T02:13:45;16.95;;;6.40;;
64653;SDS011;51065;48.884;12.598;2022-12-08T02:43:43;17.70;;;6.22;;
64653;SDS011;51065;48.884;12.598;2022-12-08T02:46:46;15.43;;;5.93;;
64653;SDS011;51065;48.884;12.598;2022-12-08T02:49:18;18.65;;;5.95;;
64653;SDS011;51065;48.884;12.598;2022-12-08T02:51:43;16.55;;;6.15;;
64653;SDS011;51065;48.884;12.598;2022-12-08T02:54:09;19.38;;;6.15;;
64653;SDS011;51065;48.884;12.598;2022-12-08T02:59:31;15.63;;;6.00;;
64653;SDS011;51065;48.884;12.598;2022-12-08T03:12:57;23.00;;;7.40;;
64653;SDS011;51065;48.884;12.598;2022-12-08T03:15:25;20.90;;;6.82;;
64653;SDS011;51065;48.884;12.598;2022-12-08T03:17:52;19.80;;;7.72;;
64653;SDS011;51065;48.884;12.598;2022-12-08T03:20:21;22.42;;;7.32;;
64653;SDS011;51065;48.884;12.598;2022-12-08T03:22:49;21.52;;;6.80;;
64653;SDS011;51065;48.884;12.598;2022-12-08T03:25:19;18.83;;;7.28;;
64653;SDS011;51065;48.884;12.598;2022-12-08T03:27:47;22.67;;;8.00;;
64653;SDS011;51065;48.884;12.598;2022-12-08T03:30:13;18.10;;;6.93;;
64653;SDS011;51065;48.884;12.598;2022-12-08T03:32:41;15.95;;;6.60;;
64653;SDS011;51065;48.884;12.598;2022-12-08T03:35:15;19.52;;;6.13;;
64653;SDS011;51065;48.884;12.598;2022-12-08T03:37:43;18.95;;;7.25;;
64653;SDS011;51065;48.884;12.598;2022-12-08T03:40:11;18.23;;;7.20;;
64653;SDS011;51065;48.884;12.598;2022-12-08T03:42:38;19.27;;;7.27;;
64653;SDS011;51065;48.884;12.598;2022-12-08T03:45:04;20.00;;;7.18;;
64653;SDS011;51065;48.884;12.598;2022-12-08T03:47:30;19.38;;;7.10;;
64653;SDS011;51065;48.884;12.598;2022-12-08T03:49:56;18.63;;;6.75;;
64653;SDS011;51065;48.884;12.598;2022-12-08T03:52:21;19.02;;;6.55;;
64653;SDS011;51065;48.884;12.598;2022-12-08T03:54:47;17.98;;;6.47;;
64653;SDS011;51065;48.884;12.598;2022-12-08T03:57:12;18.23;;;7.13;;
64653;SDS011;51065;48.884;12.598;2022-12-08T03:59:38;17.02;;;6.50;;
64653;SDS011;51065;48.884;12.598;2022-12-08T04:02:04;18.85;;;7.85;;
64653;SDS011;51065;48.884;12.598;2022-12-08T04:04:29;18.40;;;6.80;;
64653;SDS011;51065;48.884;12.598;2022-12-08T04:06:55;19.75;;;7.63;;
64653;SDS011;51065;48.884;12.598;2022-12-08T04:09:20;18.83;;;6.65;;
64653;SDS011;51065;48.884;12.598;2022-12-08T04:11:46;19.33;;;7.45;;
64653;SDS011;51065;48.884;12.598;2022-12-08T04:14:12;19.52;;;7.88;;
64653;SDS011;51065;48.884;12.598;2022-12-08T04:16:38;19.40;;;8.23;;
64653;SDS011;51065;48.884;12.598;2022-12-08T04:19:03;19.23;;;6.85;;
64653;SDS011;51065;48.884;12.598;2022-12-08T04:21:29;18.10;;;6.75;;
64653;SDS011;51065;48.884;12.598;2022-12-08T04:23:54;22.63;;;7.10;;
64653;SDS011;51065;48.884;12.598;2022-12-08T04:26:22;18.85;;;7.55;;
64653;SDS011;51065;48.884;12.598;2022-12-08T04:28:48;18.02;;;6.55;;
64653;SDS011;51065;48.884;12.598;2022-12-08T04:31:14;16.75;;;6.63;;
64653;SDS011;51065;48.884;12.598;2022-12-08T04:33:39;19.95;;;7.43;;
64653;SDS011;51065;48.884;12.598;2022-12-08T04:36:05;18.67;;;6.97;;
64653;SDS011;51065;48.884;12.598;2022-12-08T04:38:31;18.88;;;7.22;;
64653;SDS011;51065;48.884;12.598;2022-12-08T04:40:58;20.05;;;7.90;;
64653;SDS011;51065;48.884;12.598;2022-12-08T04:43:24;21.20;;;7.80;;
64653;SDS011;51065;48.884;12.598;2022-12-08T04:45:49;19.27;;;7.78;;
64653;SDS011;51065;48.884;12.598;2022-12-08T04:48:15;22.10;;;8.32;;
64653;SDS011;51065;48.884;12.598;2022-12-08T04:50:41;20.90;;;8.23;;
64653;SDS011;51065;48.884;12.598;2022-12-08T04:53:08;20.85;;;7.60;;
64653;SDS011;51065;48.884;12.598;2022-12-08T04:55:41;20.80;;;7.30;;
64653;SDS011;51065;48.884;12.598;2022-12-08T04:58:16;18.38;;;7.45;;
64653;SDS011;51065;48.884;12.598;2022-12-08T05:00:42;20.27;;;7.30;;
64653;SDS011;51065;48.884;12.598;2022-12-08T05:03:09;20.30;;;7.57;;
64653;SDS011;51065;48.884;12.598;2022-12-08T05:05:34;19.50;;;7.28;;
64653;SDS011;51065;48.884;12.598;2022-12-08T05:08:00;19.63;;;7.53;;
64653;SDS011;51065;48.884;12.598;2022-12-08T05:10:25;17.85;;;6.43;;
64653;SDS011;51065;48.884;12.598;2022-12-08T05:12:51;19.75;;;7.20;;
64653;SDS011;51065;48.884;12.598;2022-12-08T05:15:17;20.20;;;7.72;;
64653;SDS011;51065;48.884;12.598;2022-12-08T05:17:42;19.55;;;6.78;;
64653;SDS011;51065;48.884;12.598;2022-12-08T05:20:08;19.00;;;7.75;;
64653;SDS011;51065;48.884;12.598;2022-12-08T05:22:34;17.48;;;7.75;;
64653;SDS011;51065;48.884;12.598;2022-12-08T05:25:00;21.83;;;9.10;;
64653;SDS011;51065;48.884;12.598;2022-12-08T05:27:25;21.17;;;7.55;;
64653;SDS011;51065;48.884;12.598;2022-12-08T05:29:51;19.88;;;7.75;;
64653;SDS011;51065;48.884;12.598;2022-12-08T05:32:17;19.63;;;7.68;;
64653;SDS011;51065;48.884;12.598;2022-12-08T05:34:42;20.65;;;8.13;;
64653;SDS011;51065;48.884;12.598;2022-12-08T05:37:08;21.30;;;8.68;;
64653;SDS011;51065;48.884;12.598;2022-12-08T05:39:33;21.13;;;7.55;;
64653;SDS011;51065;48.884;12.598;2022-12-08T05:41:59;19.08;;;7.45;;
64653;SDS011;51065;48.884;12.598;2022-12-08T05:44:25;19.27;;;7.50;;
64653;SDS011;51065;48.884;12.598;2022-12-08T05:46:51;22.45;;;7.43;;
64653;SDS011;51065;48.884;12.598;2022-12-08T05:49:16;19.67;;;7.57;;
64653;SDS011;51065;48.884;12.598;2022-12-08T05:51:42;20.63;;;7.00;;
64653;SDS011;51065;48.884;12.598;2022-12-08T05:54:08;20.45;;;7.80;;
64653;SDS011;51065;48.884;12.598;2022-12-08T05:56:33;19.77;;;7.80;;
64653;SDS011;51065;48.884;12.598;2022-12-08T05:58:59;22.58;;;8.07;;
64653;SDS011;51065;48.884;12.598;2022-12-08T06:01:29;26.45;;;8.55;;
64653;SDS011;51065;48.884;12.598;2022-12-08T06:03:56;19.15;;;7.20;;
64653;SDS011;51065;48.884;12.598;2022-12-08T06:06:22;20.60;;;7.47;;
64653;SDS011;51065;48.884;12.598;2022-12-08T06:08:48;19.77;;;8.27;;
64653;SDS011;51065;48.884;12.598;2022-12-08T06:13:43;19.92;;;7.70;;
64653;SDS011;51065;48.884;12.598;2022-12-08T06:16:09;19.05;;;7.35;;
64653;SDS011;51065;48.884;12.598;2022-12-08T06:18:35;17.60;;;6.97;;
64653;SDS011;51065;48.884;12.598;2022-12-08T06:21:01;21.83;;;8.20;;
64653;SDS011;51065;48.884;12.598;2022-12-08T06:23:31;21.83;;;8.27;;
64653;SDS011;51065;48.884;12.598;2022-12-08T06:26:04;21.00;;;7.45;;
64653;SDS011;51065;48.884;12.598;2022-12-08T06:28:31;17.60;;;6.50;;
64653;SDS011;51065;48.884;12.598;2022-12-08T06:30:57;17.17;;;6.93;;
64653;SDS011;51065;48.884;12.598;2022-12-08T06:33:24;19.30;;;7.25;;
64653;SDS011;51065;48.884;12.598;2022-12-08T06:35:50;19.58;;;6.75;;
64653;SDS011;51065;48.884;12.598;2022-12-08T06:38:16;25.63;;;7.20;;
64653;SDS011;51065;48.884;12.598;2022-12-08T06:40:42;20.75;;;7.80;;
64653;SDS011;51065;48.884;12.598;2022-12-08T06:43:07;19.13;;;7.63;;
64653;SDS011;51065;48.884;12.598;2022-12-08T06:45:33;20.35;;;7.20;;
64653;SDS011;51065;48.884;12.598;2022-12-08T06:48:00;21.40;;;8.13;;
64653;SDS011;51065;48.884;12.598;2022-12-08T06:50:26;21.45;;;7.70;;
64653;SDS011;51065;48.884;12.598;2022-12-08T06:52:52;22.77;;;8.48;;
64653;SDS011;51065;48.884;12.598;2022-12-08T06:55:18;21.17;;;9.27;;
64653;SDS011;51065;48.884;12.598;2022-12-08T06:57:44;20.75;;;7.65;;
64653;SDS011;51065;48.884;12.598;2022-12-08T07:00:09;21.15;;;7.93;;
64653;SDS011;51065;48.884;12.598;2022-12-08T07:02:35;22.30;;;8.32;;
64653;SDS011;51065;48.884;12.598;2022-12-08T07:05:01;20.70;;;8.90;;
64653;SDS011;51065;48.884;12.598;2022-12-08T07:07:27;19.45;;;7.88;;
64653;SDS011;51065;48.884;12.598;2022-12-08T07:09:52;20.85;;;7.88;;
64653;SDS011;51065;48.884;12.598;2022-12-08T07:12:18;22.20;;;8.77;;
64653;SDS011;51065;48.884;12.598;2022-12-08T07:14:44;23.42;;;8.43;;
64653;SDS011;51065;48.884;12.598;2022-12-08T07:17:09;24.95;;;10.18;;
64653;SDS011;51065;48.884;12.598;2022-12-08T07:19:35;23.48;;;9.43;;
64653;SDS011;51065;48.884;12.598;2022-12-08T07:22:00;21.88;;;8.90;;
64653;SDS011;51065;48.884;12.598;2022-12-08T07:24:26;27.00;;;10.70;;
64653;SDS011;51065;48.884;12.598;2022-12-08T07:26:52;22.25;;;7.82;;
64653;SDS011;51065;48.884;12.598;2022-12-08T07:29:17;22.52;;;8.95;;
64653;SDS011;51065;48.884;12.598;2022-12-08T07:31:43;23.80;;;9.93;;
64653;SDS011;51065;48.884;12.598;2022-12-08T07:34:09;25.65;;;11.10;;
64653;SDS011;51065;48.884;12.598;2022-12-08T07:36:36;24.02;;;10.57;;
64653;SDS011;51065;48.884;12.598;2022-12-08T07:39:02;23.88;;;11.68;;
64653;SDS011;51065;48.884;12.598;2022-12-08T07:41:28;23.48;;;10.13;;
64653;SDS011;51065;48.884;12.598;2022-12-08T07:43:54;26.23;;;11.45;;
64653;SDS011;51065;48.884;12.598;2022-12-08T07:46:20;19.95;;;9.20;;
64653;SDS011;51065;48.884;12.598;2022-12-08T07:48:48;22.20;;;9.80;;
64653;SDS011;51065;48.884;12.598;2022-12-08T07:51:16;22.83;;;9.57;;
64653;SDS011;51065;48.884;12.598;2022-12-08T07:53:43;25.35;;;10.77;;
64653;SDS011;51065;48.884;12.598;2022-12-08T07:56:10;25.08;;;10.35;;
64653;SDS011;51065;48.884;12.598;2022-12-08T07:58:37;22.08;;;9.07;;
64653;SDS011;51065;48.884;12.598;2022-12-08T08:01:03;22.90;;;10.43;;
64653;SDS011;51065;48.884;12.598;2022-12-08T08:03:29;27.15;;;10.60;;
64653;SDS011;51065;48.884;12.598;2022-12-08T08:06:00;23.85;;;8.88;;
64653;SDS011;51065;48.884;12.598;2022-12-08T08:08:29;20.02;;;8.13;;
64653;SDS011;51065;48.884;12.598;2022-12-08T08:10:56;18.80;;;8.25;;
64653;SDS011;51065;48.884;12.598;2022-12-08T08:13:21;20.30;;;8.50;;
64653;SDS011;51065;48.884;12.598;2022-12-08T08:15:47;19.95;;;8.23;;
64653;SDS011;51065;48.884;12.598;2022-12-08T08:18:13;20.65;;;9.25;;
64653;SDS011;51065;48.884;12.598;2022-12-08T08:20:38;28.17;;;11.93;;
64653;SDS011;51065;48.884;12.598;2022-12-08T08:23:04;21.60;;;8.73;;
64653;SDS011;51065;48.884;12.598;2022-12-08T08:25:29;23.38;;;9.23;;
64653;SDS011;51065;48.884;12.598;2022-12-08T08:27:55;25.85;;;10.50;;
64653;SDS011;51065;48.884;12.598;2022-12-08T08:30:21;21.17;;;9.07;;
64653;SDS011;51065;48.884;12.598;2022-12-08T08:32:47;22.15;;;9.32;;
64653;SDS011;51065;48.884;12.598;2022-12-08T08:35:13;20.65;;;8.77;;
64653;SDS011;51065;48.884;12.598;2022-12-08T08:37:39;20.48;;;9.25;;
64653;SDS011;51065;48.884;12.598;2022-12-08T08:40:05;21.13;;;9.35;;
64653;SDS011;51065;48.884;12.598;2022-12-08T08:42:31;20.95;;;9.02;;
64653;SDS011;51065;48.884;12.598;2022-12-08T08:44:56;19.90;;;8.88;;
64653;SDS011;51065;48.884;12.598;2022-12-08T08:47:22;21.30;;;8.77;;
64653;SDS011;51065;48.884;12.598;2022-12-08T08:49:47;21.55;;;8.85;;
64653;SDS011;51065;48.884;12.598;2022-12-08T08:52:13;23.80;;;9.68;;
64653;SDS011;51065;48.884;12.598;2022-12-08T08:54:39;23.23;;;9.00;;
64653;SDS011;51065;48.884;12.598;2022-12-08T08:57:04;22.27;;;10.27;;
64653;SDS011;51065;48.884;12.598;2022-12-08T08:59:30;21.73;;;9.38;;
64653;SDS011;51065;48.884;12.598;2022-12-08T09:01:55;20.20;;;8.43;;
64653;SDS011;51065;48.884;12.598;2022-12-08T09:04:21;21.90;;;9.70;;
64653;SDS011;51065;48.884;12.598;2022-12-08T09:06:47;21.20;;;9.23;;
64653;SDS011;51065;48.884;12.598;2022-12-08T09:09:13;21.15;;;8.70;;
64653;SDS011;51065;48.884;12.598;2022-12-08T09:11:40;22.02;;;8.75;;
64653;SDS011;51065;48.884;12.598;2022-12-08T09:14:06;25.88;;;10.43;;
64653;SDS011;51065;48.884;12.598;2022-12-08T09:16:31;25.05;;;11.90;;
64653;SDS011;51065;48.884;12.598;2022-12-08T09:18:57;25.75;;;11.07;;
64653;SDS011;51065;48.884;12.598;2022-12-08T09:21:23;24.17;;;10.27;;
64653;SDS011;51065;48.884;12.598;2022-12-08T09:23:51;27.65;;;11.20;;
64653;SDS011;51065;48.884;12.598;2022-12-08T09:26:18;22.85;;;10.70;;
64653;SDS011;51065;48.884;12.598;2022-12-08T09:28:48;24.15;;;10.52;;
64653;SDS011;51065;48.884;12.598;2022-12-08T09:31:15;20.42;;;7.90;;
64653;SDS011;51065;48.884;12.598;2022-12-08T09:33:42;22.85;;;9.25;;
64653;SDS011;51065;48.884;12.598;2022-12-08T09:36:08;24.50;;;9.77;;
64653;SDS011;51065;48.884;12.598;2022-12-08T09:38:34;20.20;;;8.93;;
64653;SDS011;51065;48.884;12.598;2022-12-08T09:41:00;22.38;;;9.85;;
64653;SDS011;51065;48.884;12.598;2022-12-08T09:46:27;23.83;;;9.32;;
64653;SDS011;51065;48.884;12.598;2022-12-08T09:48:56;21.00;;;9.00;;
64653;SDS011;51065;48.884;12.598;2022-12-08T09:51:24;27.13;;;11.18;;
64653;SDS011;51065;48.884;12.598;2022-12-08T09:53:53;26.80;;;11.38;;
64653;SDS011;51065;48.884;12.598;2022-12-08T09:56:29;23.55;;;9.98;;
64653;SDS011;51065;48.884;12.598;2022-12-08T09:59:00;25.00;;;10.20;;
64653;SDS011;51065;48.884;12.598;2022-12-08T10:01:30;24.27;;;9.63;;
64653;SDS011;51065;48.884;12.598;2022-12-08T10:03:58;23.77;;;9.68;;
64653;SDS011;51065;48.884;12.598;2022-12-08T10:09:18;18.55;;;8.40;;
64653;SDS011;51065;48.884;12.598;2022-12-08T10:11:52;19.02;;;8.70;;
64653;SDS011;51065;48.884;12.598;2022-12-08T10:14:32;20.52;;;8.40;;
64653;SDS011;51065;48.884;12.598;2022-12-08T10:17:13;20.48;;;8.50;;
64653;SDS011;51065;48.884;12.598;2022-12-08T10:19:44;23.15;;;10.05;;
64653;SDS011;51065;48.884;12.598;2022-12-08T10:22:16;23.60;;;9.52;;
64653;SDS011;51065;48.884;12.598;2022-12-08T10:24:49;21.35;;;9.48;;
64653;SDS011;51065;48.884;12.598;2022-12-08T10:27:43;22.90;;;7.80;;
64653;SDS011;51065;48.884;12.598;2022-12-08T10:30:12;21.90;;;8.63;;
64653;SDS011;51065;48.884;12.598;2022-12-08T10:32:41;21.38;;;10.20;;
64653;SDS011;51065;48.884;12.598;2022-12-08T10:35:10;18.48;;;7.47;;
64653;SDS011;51065;48.884;12.598;2022-12-08T10:37:37;19.52;;;8.20;;
64653;SDS011;51065;48.884;12.598;2022-12-08T10:42:38;18.10;;;8.32;;
64653;SDS011;51065;48.884;12.598;2022-12-08T10:45:24;19.48;;;8.55;;
64653;SDS011;51065;48.884;12.598;2022-12-08T10:48:05;22.30;;;8.23;;
64653;SDS011;51065;48.884;12.598;2022-12-08T10:50:44;20.10;;;7.63;;
64653;SDS011;51065;48.884;12.598;2022-12-08T10:53:15;20.25;;;8.43;;
64653;SDS011;51065;48.884;12.598;2022-12-08T10:58:30;19.30;;;8.05;;
64653;SDS011;51065;48.884;12.598;2022-12-08T11:01:12;19.83;;;8.35;;
64653;SDS011;51065;48.884;12.598;2022-12-08T11:03:46;19.73;;;8.65;;
64653;SDS011;51065;48.884;12.598;2022-12-08T11:06:18;22.80;;;10.23;;
64653;SDS011;51065;48.884;12.598;2022-12-08T11:08:48;21.77;;;9.18;;
64653;SDS011;51065;48.884;12.598;2022-12-08T11:11:16;21.92;;;8.25;;
64653;SDS011;51065;48.884;12.598;2022-12-08T11:13:43;19.95;;;8.73;;
64653;SDS011;51065;48.884;12.598;2022-12-08T11:16:12;19.02;;;8.07;;
64653;SDS011;51065;48.884;12.598;2022-12-08T11:18:41;22.05;;;9.70;;
64653;SDS011;51065;48.884;12.598;2022-12-08T11:21:10;20.25;;;8.30;;
64653;SDS011;51065;48.884;12.598;2022-12-08T11:23:47;21.17;;;8.65;;
64653;SDS011;51065;48.884;12.598;2022-12-08T11:28:54;20.08;;;8.75;;
64653;SDS011;51065;48.884;12.598;2022-12-08T11:33:57;19.67;;;8.50;;
64653;SDS011;51065;48.884;12.598;2022-12-08T11:36:23;20.92;;;8.50;;
64653;SDS011;51065;48.884;12.598;2022-12-08T11:38:54;20.55;;;8.35;;
64653;SDS011;51065;48.884;12.598;2022-12-08T11:41:22;21.83;;;9.48;;
64653;SDS011;51065;48.884;12.598;2022-12-08T11:43:59;19.83;;;9.48;;
64653;SDS011;51065;48.884;12.598;2022-12-08T11:49:11;25.10;;;10.45;;
64653;SDS011;51065;48.884;12.598;2022-12-08T11:51:49;23.40;;;10.38;;
64653;SDS011;51065;48.884;12.598;2022-12-08T11:54:23;20.35;;;9.38;;
64653;SDS011;51065;48.884;12.598;2022-12-08T11:56:56;23.00;;;9.35;;
64653;SDS011;51065;48.884;12.598;2022-12-08T11:59:28;19.70;;;10.15;;
64653;SDS011;51065;48.884;12.598;2022-12-08T12:02:26;22.95;;;9.10;;
64653;SDS011;51065;48.884;12.598;2022-12-08T12:13:02;22.33;;;9.75;;
64653;SDS011;51065;48.884;12.598;2022-12-08T12:21:17;23.88;;;11.23;;
64653;SDS011;51065;48.884;12.598;2022-12-08T12:23:46;23.83;;;11.23;;
64653;SDS011;51065;48.884;12.598;2022-12-08T12:28:57;27.42;;;11.63;;
64653;SDS011;51065;48.884;12.598;2022-12-08T12:31:28;24.20;;;9.85;;
64653;SDS011;51065;48.884;12.598;2022-12-08T12:34:45;26.02;;;11.88;;
64653;SDS011;51065;48.884;12.598;2022-12-08T12:39:34;24.40;;;10.10;;
64653;SDS011;51065;48.884;12.598;2022-12-08T12:42:34;23.52;;;9.77;;
64653;SDS011;51065;48.884;12.598;2022-12-08T12:45:10;24.83;;;10.77;;
64653;SDS011;51065;48.884;12.598;2022-12-08T12:47:50;26.40;;;10.75;;
64653;SDS011;51065;48.884;12.598;2022-12-08T12:53:04;23.75;;;10.43;;
64653;SDS011;51065;48.884;12.598;2022-12-08T13:03:41;24.02;;;10.88;;
64653;SDS011;51065;48.884;12.598;2022-12-08T13:06:07;29.10;;;14.07;;
64653;SDS011;51065;48.884;12.598;2022-12-08T13:08:48;26.40;;;10.85;;
64653;SDS011;51065;48.884;12.598;2022-12-08T13:11:16;45.72;;;22.13;;
64653;SDS011;51065;48.884;12.598;2022-12-08T13:13:54;26.05;;;11.80;;
64653;SDS011;51065;48.884;12.598;2022-12-08T13:16:25;25.70;;;11.05;;
64653;SDS011;51065;48.884;12.598;2022-12-08T13:18:56;24.63;;;10.88;;
64653;SDS011;51065;48.884;12.598;2022-12-08T13:21:23;27.48;;;12.20;;
64653;SDS011;51065;48.884;12.598;2022-12-08T13:26:42;25.45;;;11.88;;
64653;SDS011;51065;48.884;12.598;2022-12-08T13:29:13;29.20;;;12.27;;
64653;SDS011;51065;48.884;12.598;2022-12-08T13:31:50;24.92;;;11.85;;
64653;SDS011;51065;48.884;12.598;2022-12-08T13:42:06;23.50;;;10.43;;
64653;SDS011;51065;48.884;12.598;2022-12-08T13:44:54;25.15;;;10.05;;
64653;SDS011;51065;48.884;12.598;2022-12-08T13:47:30;25.50;;;11.40;;
64653;SDS011;51065;48.884;12.598;2022-12-08T13:50:02;24.90;;;11.50;;
64653;SDS011;51065;48.884;12.598;2022-12-08T13:52:36;25.67;;;11.10;;
64653;SDS011;51065;48.884;12.598;2022-12-08T13:55:14;25.25;;;11.90;;
64653;SDS011;51065;48.884;12.598;2022-12-08T13:57:47;22.83;;;10.00;;
64653;SDS011;51065;48.884;12.598;2022-12-08T14:00:15;25.20;;;10.23;;
64653;SDS011;51065;48.884;12.598;2022-12-08T14:02:44;25.13;;;9.65;;
64653;SDS011;51065;48.884;12.598;2022-12-08T14:05:11;24.25;;;10.13;;
64653;SDS011;51065;48.884;12.598;2022-12-08T14:07:38;26.10;;;10.82;;
64653;SDS011;51065;48.884;12.598;2022-12-08T14:10:47;24.65;;;10.70;;
64653;SDS011;51065;48.884;12.598;2022-12-08T14:12:56;25.60;;;11.15;;
64653;SDS011;51065;48.884;12.598;2022-12-08T14:15:32;22.45;;;9.85;;
64653;SDS011;51065;48.884;12.598;2022-12-08T14:17:58;24.20;;;10.52;;
64653;SDS011;51065;48.884;12.598;2022-12-08T14:20:27;27.13;;;10.55;;
64653;SDS011;51065;48.884;12.598;2022-12-08T14:22:54;23.60;;;10.55;;
64653;SDS011;51065;48.884;12.598;2022-12-08T14:25:21;27.55;;;11.18;;
64653;SDS011;51065;48.884;12.598;2022-12-08T14:27:48;23.58;;;10.27;;
64653;SDS011;51065;48.884;12.598;2022-12-08T14:30:18;22.70;;;10.02;;
64653;SDS011;51065;48.884;12.598;2022-12-08T14:32:49;27.55;;;10.73;;
64653;SDS011;51065;48.884;12.598;2022-12-08T14:35:28;25.25;;;11.65;;
64653;SDS011;51065;48.884;12.598;2022-12-08T14:37:57;28.67;;;13.30;;
64653;SDS011;51065;48.884;12.598;2022-12-08T14:40:29;29.05;;;13.73;;
64653;SDS011;51065;48.884;12.598;2022-12-08T14:48:20;28.75;;;13.23;;
64653;SDS011;51065;48.884;12.598;2022-12-08T14:53:26;30.83;;;12.63;;
64653;SDS011;51065;48.884;12.598;2022-12-08T14:56:19;38.88;;;18.25;;
64653;SDS011;51065;48.884;12.598;2022-12-08T14:58:48;33.65;;;16.13;;
64653;SDS011;51065;48.884;12.598;2022-12-08T15:01:27;30.20;;;12.82;;
64653;SDS011;51065;48.884;12.598;2022-12-08T15:03:58;29.42;;;12.48;;
64653;SDS011;51065;48.884;12.598;2022-12-08T15:06:52;29.17;;;14.35;;
64653;SDS011;51065;48.884;12.598;2022-12-08T15:09:37;27.33;;;12.10;;
64653;SDS011;51065;48.884;12.598;2022-12-08T15:17:40;31.42;;;13.75;;
64653;SDS011;51065;48.884;12.598;2022-12-08T15:20:24;31.33;;;14.43;;
64653;SDS011;51065;48.884;12.598;2022-12-08T15:22:51;31.45;;;14.20;;
64653;SDS011;51065;48.884;12.598;2022-12-08T15:25:18;33.85;;;15.38;;
64653;SDS011;51065;48.884;12.598;2022-12-08T15:27:44;29.80;;;13.13;;
64653;SDS011;51065;48.884;12.598;2022-12-08T15:30:14;29.95;;;13.40;;
64653;SDS011;51065;48.884;12.598;2022-12-08T15:35:07;61.85;;;39.42;;
64653;SDS011;51065;48.884;12.598;2022-12-08T15:37:36;64.75;;;40.65;;
64653;SDS011;51065;48.884;12.598;2022-12-08T15:40:02;52.30;;;33.97;;
64653;SDS011;51065;48.884;12.598;2022-12-08T15:42:28;46.67;;;27.40;;
64653;SDS011;51065;48.884;12.598;2022-12-08T15:44:53;35.08;;;19.50;;
64653;SDS011;51065;48.884;12.598;2022-12-08T15:47:22;33.85;;;17.20;;
64653;SDS011;51065;48.884;12.598;2022-12-08T15:49:49;32.58;;;14.75;;
64653;SDS011;51065;48.884;12.598;2022-12-08T15:52:17;32.75;;;17.33;;
64653;SDS011;51065;48.884;12.598;2022-12-08T15:54:45;27.63;;;13.00;;
64653;SDS011;51065;48.884;12.598;2022-12-08T15:57:29;25.33;;;12.02;;
64653;SDS011;51065;48.884;12.598;2022-12-08T15:59:56;33.90;;;16.10;;
64653;SDS011;51065;48.884;12.598;2022-12-08T16:02:22;32.50;;;15.43;;
64653;SDS011;51065;48.884;12.598;2022-12-08T16:04:48;34.95;;;15.18;;
64653;SDS011;51065;48.884;12.598;2022-12-08T16:07:18;39.83;;;18.67;;
64653;SDS011;51065;48.884;12.598;2022-12-08T16:09:47;38.67;;;19.15;;
64653;SDS011;51065;48.884;12.598;2022-12-08T16:12:34;37.33;;;18.88;;
64653;SDS011;51065;48.884;12.598;2022-12-08T16:15:18;34.38;;;17.60;;
64653;SDS011;51065;48.884;12.598;2022-12-08T16:17:43;34.13;;;17.45;;
64653;SDS011;51065;48.884;12.598;2022-12-08T16:20:11;33.92;;;17.48;;
64653;SDS011;51065;48.884;12.598;2022-12-08T16:22:39;39.25;;;18.35;;
64653;SDS011;51065;48.884;12.598;2022-12-08T16:25:05;35.50;;;17.73;;
64653;SDS011;51065;48.884;12.598;2022-12-08T16:27:32;34.22;;;18.08;;
64653;SDS011;51065;48.884;12.598;2022-12-08T16:30:01;35.40;;;17.77;;